Aérodrome :
LOGIN :

S'inscrire | Disclaimer

   EN    FR    IT 

 










Légende :    VFR   VFR Marginal   IFR   IFR Intensif   IFR Très Intensif
Visi : 
Plafond : 
>= 8 km
>= 3000ft
5 à 8 km
1000 à 3000 ft
1500m à 5 km
500 à 1000 ft
800 à 1500m
200 à 500 ft
< 800m
< 200 ft
Symboles :   Orages  Brouillard  Fortes neiges  Fortes précipitations  Vent > 20 kt
SIGMETs :   Divers  Orages  Givrage  Turbulence  Onde Orograph.  Cendres Volcan.







- Altitude de l'aérodrome : 600 ft
- Code IATA : VIE


LOWW - Vienna Schwechat

DERNIER METAR :
  • 240650Z 30016KT 9999 FEW024 SCT026 BKN090 15/08 Q1020 NOSIG

METARs EXPIRÉS :
  • 240620Z 30014KT 9999 FEW024 BKN050 15/08 Q1020 NOSIG
  • 240550Z 30014KT 9999 FEW024 BKN050 15/08 Q1020 NOSIG
  • 240520Z 31011KT 9999 FEW028 SCT048 BKN050 15/08 Q1020 NOSIG
  • 240450Z 30011KT 9999 FEW046 BKN050 14/08 Q1020 NOSIG
  • 240420Z 30010KT 9999 FEW038 SCT050 BKN110 14/08 Q1020 NOSIG

TAF TAF LOWW
Valide du 24 à 06h jusqu'au 25 à 12h UTC


240515Z 2406/2512 31012KT 9999 FEW045 SCT060 TX21/2415Z TN13/2503Z
TEMPO 2406/2412 32017KT BKN050
BECMG 2422/2424 -RA OVC045
FM251000 35010KT 9999 FEW045 SCT060
Pas de NOTAMs connus pour ce terrain.



MET'MAP, la Météo Aéronautique d'un coup d'oeil ! - Copyright ORBIFLY Décembre 2007 - Disclaimer

ORBIFLY MET'MAP TEAM :

Programmation & Développement : Alexandra Zaïnal
Conception & Développement : Baudouin d'Aumeries
Co-Programmation & Développement : Marc-Olivier Méhu
Soutien technique & logistique : Manuel Goepfert

Contact : metmap@orbifly.com




SOURCES & CREDITS :

   NOAA